Аэропорт: Сары-Арка. Караганда

ICAO: UAKK

METAR:
2019-11-21 09:30:00
UAKK 210930Z VRB01MPS CAVOK M20/M25 Q1034 R05/820560 NOSIG RMK QFE727/0970
METAR:
2019-11-21 05:00:00
TAF UAKK 210500Z 2106/2206 VRB02MPS 9999 SCT020 SCT100 TXM21/2109Z TNM33/2123Z TEMPO 2106/2112 2000 IC SCT005 TEMPO 2115/2203 3100 BR SCT007